createdAt,value
2023-03-18T00:01:04.275Z,4.75
2023-03-18T00:03:32.689Z,4.77
2023-03-18T00:06:24.170Z,4.72
2023-03-18T00:08:51.006Z,4.73
2023-03-18T00:11:20.242Z,4.67
2023-03-18T00:13:48.113Z,4.57
2023-03-18T00:16:16.689Z,4.49
2023-03-18T00:18:43.963Z,4.57
2023-03-18T00:21:11.142Z,4.52
2023-03-18T00:23:38.837Z,4.48
2023-03-18T00:26:06.844Z,4.45
2023-03-18T00:28:33.640Z,4.36
2023-03-18T00:31:10.334Z,4.38
2023-03-18T00:33:40.182Z,4.49
2023-03-18T00:36:10.424Z,4.55
2023-03-18T00:38:37.630Z,4.41
2023-03-18T00:41:11.593Z,4.47
2023-03-18T00:43:49.467Z,4.31
2023-03-18T00:46:19.528Z,4.49
2023-03-18T00:48:47.495Z,4.51
2023-03-18T00:51:17.293Z,4.48
2023-03-18T00:53:47.724Z,4.35
2023-03-18T00:56:16.504Z,4.28
2023-03-18T00:58:43.336Z,4.27
2023-03-18T01:01:10.402Z,4.38
2023-03-18T01:03:37.189Z,4.45
2023-03-18T01:06:04.386Z,4.50
2023-03-18T01:08:32.213Z,4.57
2023-03-18T01:10:59.564Z,4.66
2023-03-18T01:13:26.358Z,4.64
2023-03-18T01:15:53.369Z,4.68
2023-03-18T01:18:21.106Z,4.71
2023-03-18T01:20:48.860Z,4.69
2023-03-18T01:23:15.828Z,4.65
2023-03-18T01:25:44.795Z,4.77
2023-03-18T01:28:13.501Z,4.74
2023-03-18T01:30:41.084Z,4.71
2023-03-18T01:33:08.077Z,4.73
2023-03-18T01:35:36.497Z,4.72
2023-03-18T01:38:05.719Z,4.63
2023-03-18T01:40:36.329Z,4.53
2023-03-18T01:43:24.997Z,4.56
2023-03-18T01:45:55.464Z,4.58
2023-03-18T01:48:26.218Z,4.52
2023-03-18T01:50:59.792Z,4.51
2023-03-18T01:53:32.763Z,4.50
2023-03-18T01:56:01.408Z,4.62
2023-03-18T01:58:36.836Z,4.55
2023-03-18T02:01:14.830Z,4.64
2023-03-18T02:03:42.995Z,4.64
2023-03-18T02:06:12.489Z,4.70
2023-03-18T02:08:41.050Z,4.76
2023-03-18T02:11:09.744Z,4.73
2023-03-18T02:13:40.785Z,4.69
2023-03-18T02:16:18.582Z,4.74
2023-03-18T02:18:56.646Z,4.73
2023-03-18T02:21:42.647Z,4.69
2023-03-18T02:24:51.694Z,4.66
2023-03-18T02:27:31.888Z,4.64
2023-03-18T02:30:05.103Z,4.68
2023-03-18T02:32:33.598Z,4.74
2023-03-18T02:35:04.634Z,4.65
2023-03-18T02:37:31.460Z,4.66
2023-03-18T02:40:31.206Z,4.69
2023-03-18T02:43:15.757Z,4.70
2023-03-18T02:46:38.448Z,4.69
2023-03-18T02:49:07.894Z,4.54
2023-03-18T02:51:37.241Z,4.46
2023-03-18T02:54:10.327Z,4.49
2023-03-18T02:56:42.484Z,4.48
2023-03-18T02:59:11.024Z,4.55
2023-03-18T03:01:39.380Z,4.55
2023-03-18T03:04:07.699Z,4.27
2023-03-18T03:06:36.098Z,4.29
2023-03-18T03:09:05.631Z,4.22
2023-03-18T03:11:33.190Z,4.23
2023-03-18T03:14:00.099Z,4.08
2023-03-18T03:16:26.884Z,4.10
2023-03-18T03:18:53.862Z,4.14
2023-03-18T03:21:20.646Z,4.15
2023-03-18T03:23:48.348Z,4.19
2023-03-18T03:26:16.857Z,4.19
2023-03-18T03:28:44.227Z,4.13
2023-03-18T03:31:11.256Z,4.17
2023-03-18T03:33:43.807Z,4.15
2023-03-18T03:36:14.612Z,4.15
2023-03-18T03:38:41.793Z,3.96
2023-03-18T03:41:11.684Z,4.06
2023-03-18T03:43:41.283Z,4.11
2023-03-18T03:46:09.536Z,4.10
2023-03-18T03:48:36.435Z,3.99
2023-03-18T03:51:03.519Z,3.90
2023-03-18T03:53:30.287Z,3.91
2023-03-18T03:55:59.138Z,3.87
2023-03-18T03:58:26.876Z,3.71
2023-03-18T04:00:53.644Z,3.64
2023-03-18T04:03:20.405Z,3.65
2023-03-18T04:05:47.884Z,3.66
2023-03-18T04:08:14.665Z,3.71
2023-03-18T04:10:41.554Z,3.63
2023-03-18T04:13:08.954Z,3.63
2023-03-18T04:15:36.007Z,3.65
2023-03-18T04:18:07.223Z,3.66
2023-03-18T04:20:38.844Z,3.62
2023-03-18T04:23:07.479Z,3.63
2023-03-18T04:25:35.410Z,3.67
2023-03-18T04:28:03.286Z,3.68
2023-03-18T04:30:30.900Z,3.51
2023-03-18T04:32:59.800Z,3.60
2023-03-18T04:35:28.438Z,3.55
2023-03-18T04:37:55.421Z,3.53
2023-03-18T04:40:22.246Z,3.41
2023-03-18T04:42:49.040Z,3.26
2023-03-18T04:45:17.700Z,3.25
2023-03-18T04:47:45.591Z,3.11
2023-03-18T04:50:14.350Z,3.16
2023-03-18T04:52:42.869Z,3.14
2023-03-18T04:55:10.866Z,3.15
2023-03-18T04:57:38.629Z,3.27
2023-03-18T05:00:11.786Z,3.04
2023-03-18T05:02:39.991Z,3.00
2023-03-18T05:05:07.957Z,3.10
2023-03-18T05:07:34.778Z,2.97
2023-03-18T05:10:01.549Z,3.03
2023-03-18T05:12:28.334Z,3.01
2023-03-18T05:14:55.190Z,2.99
2023-03-18T05:17:21.934Z,3.28
2023-03-18T05:19:49.260Z,3.04
2023-03-18T05:22:19.739Z,2.98
2023-03-18T05:24:46.990Z,2.99
2023-03-18T05:27:17.323Z,2.96
2023-03-18T05:29:44.725Z,2.98
2023-03-18T05:32:12.787Z,2.90
2023-03-18T05:34:41.447Z,2.88
2023-03-18T05:37:11.173Z,2.93
2023-03-18T05:39:38.526Z,2.83
2023-03-18T05:42:06.516Z,2.70
2023-03-18T05:44:34.138Z,2.70
2023-03-18T05:47:01.784Z,2.54
2023-03-18T05:49:29.107Z,2.58
2023-03-18T05:51:55.923Z,2.55
2023-03-18T05:54:23.564Z,2.49
2023-03-18T05:56:52.512Z,2.52
2023-03-18T05:59:22.210Z,2.47
2023-03-18T06:01:49.313Z,2.53
2023-03-18T06:04:20.064Z,2.57
2023-03-18T06:06:48.463Z,2.45
2023-03-18T06:09:16.682Z,2.36
2023-03-18T06:11:44.686Z,2.44
2023-03-18T06:14:12.823Z,2.45
2023-03-18T06:16:40.379Z,2.38
2023-03-18T06:19:08.202Z,2.19
2023-03-18T06:21:35.002Z,2.14
2023-03-18T06:24:02.387Z,2.03
2023-03-18T06:26:29.486Z,2.09
2023-03-18T06:28:58.514Z,2.03
2023-03-18T06:31:26.122Z,1.89
2023-03-18T06:33:53.479Z,2.03
2023-03-18T06:36:21.771Z,2.02
2023-03-18T06:38:48.556Z,2.01
2023-03-18T06:41:16.390Z,2.13
2023-03-18T06:43:43.440Z,2.10
2023-03-18T06:46:10.749Z,2.18
2023-03-18T06:48:40.507Z,2.15
2023-03-18T06:51:07.914Z,2.19
2023-03-18T06:53:36.521Z,2.28
2023-03-18T06:56:06.148Z,2.28
2023-03-18T06:58:32.884Z,2.36
2023-03-18T07:01:00.488Z,2.40
2023-03-18T07:03:28.293Z,2.46
2023-03-18T07:05:56.131Z,2.43
2023-03-18T07:08:23.584Z,2.48
2023-03-18T07:10:54.695Z,2.53
2023-03-18T07:13:22.677Z,2.53
2023-03-18T07:15:49.687Z,2.64
2023-03-18T07:18:16.534Z,2.65
2023-03-18T07:20:43.533Z,2.69
2023-03-18T07:23:10.717Z,2.71
2023-03-18T07:25:37.546Z,2.83
2023-03-18T07:28:05.859Z,2.90
2023-03-18T07:30:34.081Z,3.09
2023-03-18T07:33:01.317Z,3.20
2023-03-18T07:35:28.752Z,3.32
2023-03-18T07:37:55.689Z,3.56
2023-03-18T07:40:22.883Z,3.75
2023-03-18T07:42:51.726Z,3.98
2023-03-18T07:45:18.599Z,4.19
2023-03-18T07:47:47.273Z,4.42
2023-03-18T07:50:14.468Z,4.68
2023-03-18T07:52:42.022Z,4.77
2023-03-18T07:55:09.457Z,5.12
2023-03-18T07:57:36.803Z,5.38
2023-03-18T08:00:06.092Z,5.60
2023-03-18T08:02:34.085Z,5.76
2023-03-18T08:05:00.956Z,6.05
2023-03-18T08:07:27.779Z,6.33
2023-03-18T08:09:54.615Z,6.65
2023-03-18T08:12:21.956Z,6.71
2023-03-18T08:14:49.839Z,7.16
2023-03-18T08:17:16.723Z,7.42
2023-03-18T08:19:43.519Z,7.62
2023-03-18T08:22:13.235Z,7.99
2023-03-18T08:24:39.969Z,8.23
2023-03-18T08:27:07.145Z,8.44
2023-03-18T08:29:33.906Z,8.64
2023-03-18T08:32:01.402Z,8.99
2023-03-18T08:34:28.369Z,9.17
2023-03-18T08:36:55.225Z,9.44
2023-03-18T08:39:22.800Z,9.60
2023-03-18T08:41:49.512Z,9.87
2023-03-18T08:44:16.591Z,10.11
2023-03-18T08:46:43.346Z,10.34
2023-03-18T08:49:10.899Z,10.60
2023-03-18T08:51:38.634Z,10.90
2023-03-18T08:54:05.948Z,11.13
2023-03-18T08:56:32.708Z,11.54
2023-03-18T08:58:59.419Z,11.74
2023-03-18T09:01:26.366Z,11.99
2023-03-18T09:03:53.753Z,12.31
2023-03-18T09:06:21.178Z,12.53
2023-03-18T09:08:47.963Z,12.68
2023-03-18T09:11:14.809Z,12.94
2023-03-18T09:13:41.584Z,13.09
2023-03-18T09:16:08.570Z,13.23
2023-03-18T09:18:35.540Z,13.49
2023-03-18T09:21:03.418Z,13.78
2023-03-18T09:23:30.231Z,13.88
2023-03-18T09:25:57.355Z,14.08
2023-03-18T09:28:24.208Z,14.13
2023-03-18T09:30:51.521Z,14.06
2023-03-18T09:33:19.687Z,14.27
2023-03-18T09:35:46.795Z,14.51
2023-03-18T09:38:19.980Z,14.76
2023-03-18T09:41:02.817Z,14.88
2023-03-18T09:43:45.082Z,15.07
2023-03-18T09:46:25.604Z,15.00
2023-03-18T09:49:16.774Z,15.14
2023-03-18T09:51:58.750Z,15.08
2023-03-18T09:54:41.472Z,15.31
2023-03-18T09:57:30.697Z,15.27
2023-03-18T10:00:28.846Z,15.13
2023-03-18T10:03:11.264Z,15.22
2023-03-18T10:05:56.346Z,15.29
2023-03-18T10:08:51.381Z,15.37
2023-03-18T10:11:31.258Z,15.64
2023-03-18T10:14:37.130Z,15.77
2023-03-18T10:17:26.152Z,15.78
2023-03-18T10:20:09.350Z,15.79
2023-03-18T10:23:00.410Z,15.97
2023-03-18T10:25:43.981Z,16.24
2023-03-18T10:28:47.437Z,16.34
2023-03-18T10:31:23.785Z,16.03
2023-03-18T10:34:02.861Z,16.38
2023-03-18T10:36:48.286Z,16.57
2023-03-18T10:39:23.504Z,16.45
2023-03-18T10:41:52.517Z,16.53
2023-03-18T10:44:38.855Z,16.72
2023-03-18T10:47:08.394Z,16.92
2023-03-18T10:49:43.801Z,17.09
2023-03-18T10:52:38.148Z,17.19
2023-03-18T10:55:14.357Z,17.16
2023-03-18T10:57:41.558Z,17.15
2023-03-18T11:00:30.350Z,17.34
2023-03-18T11:02:57.807Z,17.49
2023-03-18T11:05:33.828Z,17.35
2023-03-18T11:08:09.097Z,17.33
2023-03-18T11:10:40.578Z,17.16
2023-03-18T11:13:07.462Z,17.23
2023-03-18T11:15:40.460Z,17.12
2023-03-18T11:18:14.538Z,17.03
2023-03-18T11:20:44.953Z,17.27
2023-03-18T11:23:56.534Z,17.33
2023-03-18T11:26:29.636Z,17.16
2023-03-18T11:29:05.819Z,17.22
2023-03-18T11:31:32.891Z,16.95
2023-03-18T11:34:00.752Z,17.02
2023-03-18T11:36:28.596Z,17.15
2023-03-18T11:39:04.868Z,17.33
2023-03-18T11:41:31.662Z,17.11
2023-03-18T11:44:02.314Z,17.36
2023-03-18T11:46:39.402Z,17.62
2023-03-18T11:49:09.896Z,17.68
2023-03-18T11:52:07.162Z,17.74
2023-03-18T11:54:49.204Z,17.87
2023-03-18T11:58:05.481Z,18.12
2023-03-18T12:00:44.002Z,18.12
2023-03-18T12:03:28.142Z,18.16
2023-03-18T12:06:30.919Z,18.31
2023-03-18T12:09:11.773Z,18.55
2023-03-18T12:11:41.335Z,18.64
2023-03-18T12:14:10.870Z,18.95
2023-03-18T12:17:13.445Z,19.06
2023-03-18T12:20:26.440Z,19.02
2023-03-18T12:23:30.132Z,19.30
2023-03-18T12:26:08.640Z,19.51
2023-03-18T12:29:09.715Z,19.58
2023-03-18T12:31:57.491Z,19.94
2023-03-18T12:35:03.103Z,19.96
2023-03-18T12:38:16.296Z,20.43
2023-03-18T12:40:51.557Z,20.37
2023-03-18T12:43:58.655Z,20.17
2023-03-18T12:46:36.180Z,20.17
2023-03-18T12:49:25.912Z,20.12
2023-03-18T12:52:06.456Z,20.39
2023-03-18T12:54:47.493Z,20.30
2023-03-18T12:57:38.495Z,20.41
2023-03-18T13:00:32.641Z,20.64
2023-03-18T13:03:27.502Z,20.75
2023-03-18T13:06:19.109Z,20.61
2023-03-18T13:09:19.144Z,20.70
2023-03-18T13:12:12.581Z,20.59
2023-03-18T13:14:45.334Z,20.55
2023-03-18T13:17:23.610Z,20.74
2023-03-18T13:19:50.633Z,21.14
2023-03-18T13:22:36.027Z,21.41
2023-03-18T13:25:34.787Z,21.33
2023-03-18T13:28:28.498Z,20.93
2023-03-18T13:31:12.555Z,21.07
2023-03-18T13:34:16.080Z,21.15
2023-03-18T13:40:58.919Z,21.66
2023-03-18T13:43:26.237Z,21.74
2023-03-18T13:45:54.218Z,21.92
2023-03-18T13:48:35.539Z,22.10
2023-03-18T13:51:34.930Z,22.32
2023-03-18T13:54:05.846Z,22.36
2023-03-18T13:56:44.352Z,21.83
2023-03-18T13:59:35.633Z,22.03
2023-03-18T14:02:33.882Z,22.14
2023-03-18T14:05:00.973Z,22.07
2023-03-18T14:07:28.724Z,21.98
2023-03-18T14:10:17.168Z,21.98
2023-03-18T14:12:47.889Z,21.85
2023-03-18T14:15:15.114Z,21.49
2023-03-18T14:17:47.874Z,21.36
2023-03-18T14:20:19.849Z,21.31
2023-03-18T14:22:53.223Z,21.22
2023-03-18T14:25:36.481Z,21.15
2023-03-18T14:28:09.447Z,20.96
2023-03-18T14:30:37.173Z,20.89
2023-03-18T14:33:05.254Z,20.67
2023-03-18T14:35:54.729Z,20.54
2023-03-18T14:38:26.218Z,20.55
2023-03-18T14:40:56.387Z,20.19
2023-03-18T14:43:35.570Z,20.13
2023-03-18T14:46:17.754Z,20.08
2023-03-18T14:48:45.228Z,20.00
2023-03-18T14:51:19.038Z,20.10
2023-03-18T14:54:07.093Z,20.06
2023-03-18T14:56:41.259Z,20.06
2023-03-18T14:59:15.800Z,20.04
2023-03-18T15:01:48.198Z,19.93
2023-03-18T15:04:24.125Z,19.86
2023-03-18T15:06:57.040Z,19.83
2023-03-18T15:09:28.592Z,19.69
2023-03-18T15:11:55.858Z,19.78
2023-03-18T15:14:30.679Z,19.78
2023-03-18T15:17:07.372Z,19.95
2023-03-18T15:19:34.107Z,20.13
2023-03-18T15:22:06.436Z,20.16
2023-03-18T15:24:33.560Z,20.37
2023-03-18T15:27:15.264Z,20.55
2023-03-18T15:29:53.167Z,20.59
2023-03-18T15:32:31.822Z,20.01
2023-03-18T15:34:59.005Z,20.18
2023-03-18T15:37:40.695Z,20.01
2023-03-18T15:40:32.044Z,20.15
2023-03-18T15:43:09.402Z,20.04
2023-03-18T15:45:41.830Z,20.01
2023-03-18T15:48:24.013Z,20.01
2023-03-18T15:51:30.987Z,19.97
2023-03-18T15:54:28.111Z,19.95
2023-03-18T15:56:59.403Z,19.76
2023-03-18T15:59:33.738Z,19.62
2023-03-18T16:02:02.230Z,19.53
2023-03-18T16:04:34.246Z,19.36
2023-03-18T16:07:01.081Z,19.25
2023-03-18T16:09:27.838Z,19.18
2023-03-18T16:12:02.530Z,19.09
2023-03-18T16:14:40.083Z,18.91
2023-03-18T16:17:07.168Z,18.78
2023-03-18T16:19:34.002Z,18.72
2023-03-18T16:22:00.809Z,18.45
2023-03-18T16:24:27.676Z,18.47
2023-03-18T16:26:56.881Z,18.35
2023-03-18T16:29:31.667Z,18.40
2023-03-18T16:31:59.993Z,18.33
2023-03-18T16:34:27.961Z,18.16
2023-03-18T16:36:55.419Z,18.00
2023-03-18T16:39:25.083Z,17.91
2023-03-18T16:41:52.482Z,17.76
2023-03-18T16:44:23.584Z,17.65
2023-03-18T16:46:54.624Z,17.46
2023-03-18T16:49:27.152Z,17.35
2023-03-18T16:51:53.964Z,17.24
2023-03-18T16:54:29.382Z,17.17
2023-03-18T16:56:59.532Z,17.04
2023-03-18T16:59:32.132Z,16.88
2023-03-18T17:01:58.869Z,16.78
2023-03-18T17:04:29.391Z,16.68
2023-03-18T17:06:59.831Z,16.52
2023-03-18T17:09:27.801Z,16.12
2023-03-18T17:12:00.018Z,16.14
2023-03-18T17:14:44.050Z,15.87
2023-03-18T17:17:25.381Z,15.78
2023-03-18T17:19:52.207Z,15.71
2023-03-18T17:22:29.230Z,15.60
2023-03-18T17:24:56.566Z,15.47
2023-03-18T17:27:49.833Z,15.31
2023-03-18T17:30:22.646Z,15.23
2023-03-18T17:32:50.787Z,15.16
2023-03-18T17:35:21.910Z,15.06
2023-03-18T17:37:49.529Z,14.93
2023-03-18T17:40:19.429Z,14.87
2023-03-18T17:42:48.067Z,14.71
2023-03-18T17:45:32.464Z,14.61
2023-03-18T17:48:18.087Z,14.35
2023-03-18T17:50:45.111Z,14.06
2023-03-18T17:53:26.771Z,13.90
2023-03-18T17:55:54.829Z,13.78
2023-03-18T17:58:24.796Z,13.77
2023-03-18T18:00:54.096Z,13.72
2023-03-18T18:03:27.952Z,13.78
2023-03-18T18:05:56.929Z,13.67
2023-03-18T18:08:25.755Z,13.57
2023-03-18T18:10:54.721Z,13.15
2023-03-18T18:13:23.432Z,12.98
2023-03-18T18:15:51.189Z,12.96
2023-03-18T18:18:26.756Z,12.92
2023-03-18T18:20:57.800Z,12.90
2023-03-18T18:23:38.957Z,12.76
2023-03-18T18:26:09.469Z,12.81
2023-03-18T18:28:42.796Z,12.64
2023-03-18T18:31:12.262Z,12.82
2023-03-18T18:33:42.500Z,12.77
2023-03-18T18:36:10.178Z,12.51
2023-03-18T18:38:36.997Z,12.51
2023-03-18T18:41:04.734Z,12.37
2023-03-18T18:43:31.878Z,12.09
2023-03-18T18:45:59.261Z,12.05
2023-03-18T18:48:34.728Z,11.84
2023-03-18T18:51:04.259Z,11.81
2023-03-18T18:53:36.719Z,11.50
2023-03-18T18:56:44.002Z,11.35
2023-03-18T18:59:24.926Z,11.03
2023-03-18T19:01:52.092Z,10.91
2023-03-18T19:04:19.100Z,10.85
2023-03-18T19:06:46.473Z,10.78
2023-03-18T19:09:23.784Z,10.78
2023-03-18T19:11:51.801Z,10.77
2023-03-18T19:14:29.074Z,10.75
2023-03-18T19:16:58.830Z,10.48
2023-03-18T19:19:33.471Z,10.24
2023-03-18T19:22:00.563Z,10.13
2023-03-18T19:24:37.120Z,10.28
2023-03-18T19:27:13.858Z,10.27
2023-03-18T19:29:41.586Z,10.11
2023-03-18T19:32:28.577Z,10.10
2023-03-18T19:34:56.074Z,10.14
2023-03-18T19:37:29.457Z,10.03
2023-03-18T19:39:57.247Z,9.93
2023-03-18T19:42:24.080Z,9.83
2023-03-18T19:44:51.241Z,9.99
2023-03-18T19:47:23.033Z,9.93
2023-03-18T19:49:50.702Z,9.82
2023-03-18T19:52:24.516Z,9.75
2023-03-18T19:54:52.839Z,9.76
2023-03-18T19:57:27.986Z,9.73
2023-03-18T19:59:58.774Z,9.53
2023-03-18T20:02:31.573Z,9.52
2023-03-18T20:05:02.331Z,9.52
2023-03-18T20:07:32.717Z,9.46
2023-03-18T20:09:59.814Z,9.47
2023-03-18T20:12:36.654Z,9.55
2023-03-18T20:15:05.805Z,9.21
2023-03-18T20:17:39.500Z,9.08
2023-03-18T20:20:30.581Z,9.02
2023-03-18T20:23:02.798Z,8.90
2023-03-18T20:25:41.278Z,8.80
2023-03-18T20:28:15.800Z,8.54
2023-03-18T20:30:43.686Z,8.46
2023-03-18T20:33:10.628Z,8.45
2023-03-18T20:35:42.988Z,8.47
2023-03-18T20:38:33.832Z,8.60
2023-03-18T20:41:01.112Z,8.47
2023-03-18T20:43:29.786Z,8.39
2023-03-18T20:45:59.580Z,8.20
2023-03-18T20:48:27.920Z,8.06
2023-03-18T20:50:55.431Z,7.94
2023-03-18T20:53:31.862Z,7.98
2023-03-18T20:55:58.679Z,7.96
2023-03-18T20:58:28.233Z,7.96
2023-03-18T21:00:55.451Z,7.66
2023-03-18T21:03:34.865Z,7.71
2023-03-18T21:06:06.656Z,7.85
2023-03-18T21:08:33.882Z,7.85
2023-03-18T21:11:02.153Z,7.79
2023-03-18T21:13:39.453Z,7.82
2023-03-18T21:16:15.300Z,7.74
2023-03-18T21:18:45.429Z,7.58
2023-03-18T21:21:24.085Z,7.54
2023-03-18T21:23:52.634Z,7.52
2023-03-18T21:26:19.425Z,7.70
2023-03-18T21:28:46.201Z,7.48
2023-03-18T21:31:24.218Z,7.60
2023-03-18T21:33:52.288Z,7.57
2023-03-18T21:36:20.584Z,7.54
2023-03-18T21:38:47.601Z,7.36
2023-03-18T21:41:28.139Z,7.59
2023-03-18T21:43:55.067Z,7.58
2023-03-18T21:46:24.934Z,7.71
2023-03-18T21:48:52.250Z,7.61
2023-03-18T21:51:40.276Z,7.58
2023-03-18T21:54:18.400Z,7.44
2023-03-18T21:56:45.164Z,7.33
2023-03-18T21:59:11.871Z,7.23
2023-03-18T22:01:38.655Z,7.20
2023-03-18T22:04:05.708Z,7.16
2023-03-18T22:06:33.506Z,7.06
2023-03-18T22:09:00.331Z,7.09
2023-03-18T22:11:27.776Z,7.09
2023-03-18T22:13:54.608Z,7.05
2023-03-18T22:16:21.932Z,7.00
2023-03-18T22:18:48.776Z,7.05
2023-03-18T22:21:27.687Z,7.10
2023-03-18T22:23:55.750Z,7.19
2023-03-18T22:26:22.742Z,7.13
2023-03-18T22:28:50.727Z,7.18
2023-03-18T22:31:26.720Z,7.11
2023-03-18T22:33:54.288Z,7.18
2023-03-18T22:36:21.922Z,7.07
2023-03-18T22:38:49.422Z,7.02
2023-03-18T22:41:22.686Z,7.04
2023-03-18T22:43:50.947Z,7.05
2023-03-18T22:46:18.070Z,7.05
2023-03-18T22:48:45.046Z,7.23
2023-03-18T22:51:29.954Z,7.32
2023-03-18T22:53:56.976Z,7.25
2023-03-18T22:56:24.062Z,7.26
2023-03-18T22:58:51.369Z,7.27
2023-03-18T23:01:21.374Z,7.29
2023-03-18T23:03:49.048Z,7.20
2023-03-18T23:06:20.909Z,7.25
2023-03-18T23:08:48.108Z,7.15
2023-03-18T23:11:16.638Z,7.12
2023-03-18T23:13:47.606Z,7.07
2023-03-18T23:16:20.403Z,7.04
2023-03-18T23:18:47.686Z,7.05
2023-03-18T23:21:21.738Z,6.90
2023-03-18T23:23:49.024Z,6.90
2023-03-18T23:26:16.246Z,6.83
2023-03-18T23:28:45.388Z,6.83
2023-03-18T23:31:14.956Z,6.76
2023-03-18T23:33:42.572Z,6.70
2023-03-18T23:36:09.734Z,6.76
2023-03-18T23:38:37.996Z,6.72
2023-03-18T23:41:05.629Z,6.83
2023-03-18T23:43:32.385Z,6.88
2023-03-18T23:45:59.309Z,6.91
2023-03-18T23:48:26.288Z,6.96
2023-03-18T23:50:54.093Z,6.85
2023-03-18T23:53:21.054Z,6.96
2023-03-18T23:55:49.540Z,6.99
2023-03-18T23:58:16.715Z,6.94
